Time;durP1;ratioP1;P1;durP2;ratioP2;P2;SDS_P1;SDS_P2;PMS_P1;PMS_P2;Temp;Humidity;BMP_temperature;BMP_pressure;BME280_temperature;BME280_humidity;BME280_pressure;Samples;Min_cycle;Max_cycle;Signal;HPM_P1;HPM_P2
2022/03/10 00:01:24;;;;;;;12.85;9.52;;;4.60;62.80;;;;;;2099946;68;20308;-68
2022/03/10 00:04:11;;;;;;;15.40;9.65;;;4.60;63.20;;;;;;2097453;67;20328;-66
2022/03/10 00:06:58;;;;;;;11.82;8.55;;;4.60;63.00;;;;;;2106648;67;20202;-67
2022/03/10 00:09:42;;;;;;;18.73;10.43;;;4.60;63.40;;;;;;2117916;67;20216;-68
2022/03/10 00:12:25;;;;;;;16.65;9.90;;;4.50;63.60;;;;;;2103831;68;20784;-68
2022/03/10 00:15:08;;;;;;;12.18;9.23;;;4.50;63.70;;;;;;2103993;68;20364;-67
2022/03/10 00:17:51;;;;;;;14.88;9.40;;;4.40;63.80;;;;;;2101154;67;20197;-67
2022/03/10 00:20:36;;;;;;;;;;;4.50;64.10;;;;;;2096250;68;20777;-68
2022/03/10 00:23:18;;;;;;;13.90;9.40;;;4.30;64.30;;;;;;2097631;68;21010;-67
2022/03/10 00:26:00;;;;;;;16.42;9.63;;;4.70;64.20;;;;;;2103974;67;20222;-67
2022/03/10 00:28:43;;;;;;;14.60;10.00;;;4.20;64.40;;;;;;2110973;67;20393;-68
2022/03/10 00:31:28;;;;;;;18.92;10.32;;;4.20;64.90;;;;;;2124977;67;20400;-69
2022/03/10 00:34:09;;;;;;;13.75;9.57;;;4.10;65.20;;;;;;2117187;67;20326;-68
2022/03/10 00:36:52;;;;;;;13.35;9.98;;;4.10;65.40;;;;;;2131944;67;20292;-66
2022/03/10 00:39:37;;;;;;;12.82;9.65;;;4.00;65.90;;;;;;2116376;67;20329;-67
2022/03/10 00:42:23;;;;;;;15.65;9.85;;;4.00;66.10;;;;;;2110541;67;20181;-68
2022/03/10 00:45:08;;;;;;;13.15;8.73;;;4.00;66.50;;;;;;2110715;67;20647;-67
2022/03/10 00:47:50;;;;;;;15.43;10.88;;;3.90;66.50;;;;;;2104288;67;20305;-67
2022/03/10 00:50:33;;;;;;;13.25;8.52;;;3.90;66.80;;;;;;2109690;67;20678;-67
2022/03/10 00:53:19;;;;;;;14.43;9.70;;;3.90;67.00;;;;;;2110508;67;20236;-66
2022/03/10 00:56:03;;;;;;;15.02;9.43;;;3.80;67.20;;;;;;2102707;67;20729;-68
2022/03/10 00:58:45;;;;;;;14.25;9.93;;;3.80;67.60;;;;;;2090005;68;20362;-67
2022/03/10 01:01:27;;;;;;;15.43;9.73;;;3.80;67.70;;;;;;2098347;68;20281;-68
2022/03/10 01:04:09;;;;;;;13.18;8.82;;;3.70;68.20;;;;;;2096091;68;20328;-67
2022/03/10 01:06:51;;;;;;;15.02;9.93;;;3.70;68.50;;;;;;2081546;68;20195;-66
2022/03/10 01:09:33;;;;;;;13.93;9.40;;;3.70;68.90;;;;;;2082826;68;20176;-68
2022/03/10 01:12:14;;;;;;;14.82;9.27;;;3.60;69.10;;;;;;2099511;67;20699;-68
2022/03/10 01:14:55;;;;;;;16.15;10.70;;;3.60;69.70;;;;;;2100614;68;20293;-67
2022/03/10 01:17:37;;;;;;;11.40;8.63;;;3.60;69.80;;;;;;2104318;67;20461;-68
2022/03/10 01:20:22;;;;;;;17.67;11.05;;;3.50;69.80;;;;;;2107522;67;20403;-68
2022/03/10 01:23:06;;;;;;;16.77;9.25;;;3.50;70.20;;;;;;2102469;67;20194;-67
2022/03/10 01:25:49;;;;;;;12.95;9.40;;;3.50;70.50;;;;;;2113907;67;20362;-67
2022/03/10 01:28:31;;;;;;;15.60;8.98;;;3.40;71.00;;;;;;2104367;67;20182;-66
2022/03/10 01:31:14;;;;;;;15.10;10.18;;;3.40;71.40;;;;;;2111485;67;20371;-66
2022/03/10 01:33:59;;;;;;;15.38;9.77;;;3.30;72.10;;;;;;2110889;67;20244;-67
2022/03/10 01:36:42;;;;;;;14.63;9.20;;;3.30;72.50;;;;;;2115910;67;20263;-67
2022/03/10 01:39:25;;;;;;;15.10;10.32;;;3.30;73.00;;;;;;2103853;67;20256;-68
2022/03/10 01:42:09;;;;;;;14.57;9.35;;;3.20;73.20;;;;;;2131050;67;20287;-67
2022/03/10 01:44:56;;;;;;;12.57;9.32;;;3.20;73.20;;;;;;2130658;67;20344;-67
2022/03/10 01:47:38;;;;;;;14.65;9.52;;;3.20;73.70;;;;;;2139818;67;20281;-67
2022/03/10 01:50:20;;;;;;;14.70;9.68;;;3.10;74.30;;;;;;2139488;67;20429;-67
2022/03/10 01:53:04;;;;;;;14.55;9.45;;;3.10;75.10;;;;;;2148025;66;20363;-66
2022/03/10 01:55:50;;;;;;;18.55;10.38;;;3.10;75.00;;;;;;2137222;66;20301;-67
2022/03/10 01:58:32;;;;;;;15.02;9.90;;;3.10;75.40;;;;;;2146411;66;20343;-66
2022/03/10 02:01:18;;;;;;;12.55;9.32;;;3.00;76.00;;;;;;2152123;66;20173;-66
2022/03/10 02:04:00;;;;;;;14.10;9.98;;;3.00;76.10;;;;;;2139543;66;20881;-67
2022/03/10 02:06:42;;;;;;;13.05;9.80;;;3.00;76.30;;;;;;2139088;67;20849;-66
2022/03/10 02:12:23;;;;;;;15.25;9.82;;;3.10;77.30;;;;;;2144243;66;20178;-66
2022/03/10 02:18:21;;;;;;;15.93;10.32;;;2.80;78.80;;;;;;2140072;66;20435;-66
2022/03/10 02:21:04;;;;;;;16.23;10.55;;;2.80;79.20;;;;;;2132662;67;20315;-66
2022/03/10 02:23:46;;;;;;;15.85;10.00;;;2.70;79.20;;;;;;2115885;67;20288;-66
2022/03/10 02:26:28;;;;;;;13.52;9.80;;;2.70;79.70;;;;;;2124750;67;20209;-67
2022/03/10 02:29:10;;;;;;;14.68;9.80;;;2.60;80.10;;;;;;2110892;67;20314;-67
2022/03/10 02:31:53;;;;;;;16.27;10.65;;;2.60;81.50;;;;;;2113923;67;20177;-67
2022/03/10 02:34:39;;;;;;;15.43;10.48;;;2.60;82.00;;;;;;2100306;68;20724;-66
2022/03/10 02:37:21;;;;;;;16.48;10.40;;;2.70;82.60;;;;;;2104448;67;20699;-65
2022/03/10 02:40:03;;;;;;;15.45;10.85;;;2.50;83.90;;;;;;2113172;67;20181;-65
2022/03/10 02:42:45;;;;;;;18.98;11.25;;;2.40;84.30;;;;;;2120417;67;20260;-66
2022/03/10 02:45:27;;;;;;;16.08;10.10;;;2.40;84.40;;;;;;2117801;67;20227;-67
2022/03/10 02:48:09;;;;;;;14.35;9.82;;;1.80;84.80;;;;;;2128911;67;20308;-68
2022/03/10 02:50:54;;;;;;;16.58;9.93;;;2.30;85.80;;;;;;2139514;67;20788;-66
2022/03/10 02:53:35;;;;;;;17.17;9.95;;;2.30;86.30;;;;;;2142065;66;20319;-65
2022/03/10 02:56:17;;;;;;;18.30;10.77;;;2.30;88.90;;;;;;2150676;66;20274;-67
2022/03/10 02:58:58;;;;;;;15.20;10.25;;;2.20;89.30;;;;;;2154668;66;20170;-67
2022/03/10 03:01:44;;;;;;;14.40;9.98;;;2.20;89.30;;;;;;2147043;66;20182;-65
2022/03/10 03:04:26;;;;;;;13.77;9.95;;;2.20;89.90;;;;;;2153313;66;20293;-66
2022/03/10 03:07:08;;;;;;;14.18;9.55;;;2.10;90.40;;;;;;2158755;66;20196;-67
2022/03/10 03:09:51;;;;;;;16.77;10.05;;;2.20;90.40;;;;;;2162449;66;20551;-67
2022/03/10 03:12:33;;;;;;;14.50;10.40;;;2.10;90.40;;;;;;2147025;66;20215;-67
2022/03/10 03:15:18;;;;;;;15.45;9.95;;;2.10;90.70;;;;;;2141763;66;20661;-67
2022/03/10 03:18:01;;;;;;;15.45;10.50;;;2.00;91.00;;;;;;2125699;67;20405;-67
2022/03/10 03:20:43;;;;;;;13.07;9.23;;;2.00;91.00;;;;;;2134493;67;20167;-67
2022/03/10 03:23:26;;;;;;;16.05;11.02;;;2.00;91.30;;;;;;2126723;67;20227;-66
2022/03/10 03:26:12;;;;;;;15.85;11.10;;;2.00;91.50;;;;;;2125078;67;20773;-66
2022/03/10 03:28:57;;;;;;;;;;;2.00;91.60;;;;;;2125713;67;20282;-67
2022/03/10 03:31:38;;;;;;;16.20;10.27;;;2.00;92.10;;;;;;2145707;66;20124;-67
2022/03/10 03:34:21;;;;;;;13.18;9.80;;;1.90;91.20;;;;;;2146100;66;20646;-67
2022/03/10 03:37:07;;;;;;;14.18;10.80;;;2.00;91.50;;;;;;2127459;67;20259;-65
2022/03/10 03:39:52;;;;;;;15.05;9.77;;;1.90;91.40;;;;;;2100258;67;20179;-67
2022/03/10 03:42:34;;;;;;;16.23;10.57;;;1.90;91.70;;;;;;2090480;68;20236;-64
2022/03/10 03:45:16;;;;;;;15.70;10.10;;;1.90;91.60;;;;;;2083523;68;20235;-67
2022/03/10 03:47:57;;;;;;;14.85;10.50;;;2.00;91.50;;;;;;2109822;67;20370;-65
2022/03/10 03:50:39;;;;;;;15.35;10.02;;;2.00;91.70;;;;;;2111869;67;20190;-66
2022/03/10 03:53:21;;;;;;;16.75;10.40;;;1.90;91.60;;;;;;2124511;67;20633;-66
2022/03/10 03:56:05;;;;;;;14.98;9.80;;;1.90;92.00;;;;;;2146450;66;20385;-66
2022/03/10 03:58:50;;;;;;;13.35;10.00;;;1.90;91.80;;;;;;2146812;66;20182;-65
2022/03/10 04:01:32;;;;;;;15.18;10.00;;;1.90;91.90;;;;;;2151302;66;20674;-66
2022/03/10 04:04:14;;;;;;;16.65;10.70;;;1.80;92.00;;;;;;2145381;66;20752;-69
2022/03/10 04:06:55;;;;;;;15.05;10.45;;;1.80;92.20;;;;;;2145547;66;20368;-66
2022/03/10 04:09:37;;;;;;;16.02;9.98;;;1.80;92.30;;;;;;2139437;66;20380;-67
2022/03/10 04:12:19;;;;;;;14.57;9.63;;;1.80;92.30;;;;;;2132338;67;20363;-66
2022/03/10 04:15:01;;;;;;;16.52;10.32;;;1.80;92.80;;;;;;2124696;67;20197;-66
2022/03/10 04:17:43;;;;;;;14.63;10.20;;;1.80;92.80;;;;;;2117563;67;20685;-66
2022/03/10 04:20:25;;;;;;;16.05;10.43;;;1.80;93.20;;;;;;2130554;67;20466;-66
2022/03/10 04:23:07;;;;;;;14.93;10.30;;;1.70;93.10;;;;;;2134803;67;20419;-67
2022/03/10 04:25:49;;;;;;;14.07;9.73;;;1.70;93.10;;;;;;2123887;67;20205;-67
2022/03/10 04:28:31;;;;;;;14.27;9.70;;;1.70;93.30;;;;;;2127294;67;20697;-68
2022/03/10 04:31:16;;;;;;;15.80;10.35;;;1.70;93.20;;;;;;2124872;67;20177;-67
2022/03/10 04:34:02;;;;;;;16.10;10.25;;;1.60;93.10;;;;;;2124414;67;20172;-67
2022/03/10 04:36:46;;;;;;;15.57;9.75;;;1.70;93.00;;;;;;2130789;67;20312;-67
2022/03/10 04:39:32;;;;;;;14.23;9.90;;;1.70;92.90;;;;;;2119805;67;20276;-66
2022/03/10 04:42:21;;;;;;;13.18;8.68;;;1.70;92.80;;;;;;2118707;67;20419;-66
2022/03/10 04:45:10;;;;;;;14.40;9.30;;;1.80;92.70;;;;;;2123502;67;20303;-66
2022/03/10 04:47:52;;;;;;;13.45;9.63;;;1.70;92.30;;;;;;2123762;67;20184;-66
2022/03/10 04:50:37;;;;;;;14.18;9.15;;;1.70;92.30;;;;;;2136948;66;20334;-67
2022/03/10 04:53:19;;;;;;;13.50;9.50;;;1.70;92.10;;;;;;2138682;66;20323;-66
2022/03/10 04:56:01;;;;;;;11.98;8.95;;;1.80;91.90;;;;;;2129703;67;20187;-66
2022/03/10 04:58:43;;;;;;;17.33;8.93;;;1.80;91.60;;;;;;2116570;67;20172;-66
2022/03/10 05:01:24;;;;;;;14.88;9.05;;;2.00;91.50;;;;;;2111990;67;20169;-66
2022/03/10 05:04:09;;;;;;;16.65;10.00;;;1.80;91.30;;;;;;2127859;67;20313;-66
2022/03/10 05:06:51;;;;;;;12.65;9.00;;;1.80;91.30;;;;;;2134098;66;20238;-67
2022/03/10 05:09:33;;;;;;;16.20;10.10;;;2.60;91.30;;;;;;2146403;66;20244;-66
2022/03/10 05:12:16;;;;;;;15.82;9.52;;;1.80;91.10;;;;;;2137114;66;20605;-67
2022/03/10 05:15:01;;;;;;;15.65;9.35;;;1.80;91.00;;;;;;2133924;67;20801;-67
2022/03/10 05:17:44;;;;;;;15.02;9.43;;;1.90;91.20;;;;;;2132501;67;20307;-67
2022/03/10 05:20:30;;;;;;;13.23;9.20;;;1.80;91.50;;;;;;2129492;67;20738;-66
2022/03/10 05:23:14;;;;;;;14.05;9.50;;;1.80;91.10;;;;;;2127868;67;20272;-67
2022/03/10 05:25:56;;;;;;;14.27;10.52;;;1.80;91.20;;;;;;2125814;67;20322;-68
2022/03/10 05:28:38;;;;;;;16.15;9.82;;;1.70;91.40;;;;;;2110872;67;20252;-66
2022/03/10 05:31:19;;;;;;;17.42;9.82;;;1.70;91.40;;;;;;2097435;68;20672;-67
2022/03/10 05:34:02;;;;;;;13.95;9.10;;;1.70;91.70;;;;;;2089578;68;20220;-67
2022/03/10 05:36:49;;;;;;;11.38;8.98;;;1.70;91.90;;;;;;2087243;68;20304;-67
2022/03/10 05:39:31;;;;;;;15.60;9.90;;;1.70;91.90;;;;;;2093145;68;20193;-67
2022/03/10 05:42:16;;;;;;;13.55;9.35;;;1.70;91.80;;;;;;2111001;67;20378;-66
2022/03/10 05:44:58;;;;;;;15.70;9.40;;;1.70;92.00;;;;;;2117925;67;20392;-65
2022/03/10 05:47:41;;;;;;;14.05;9.57;;;1.70;92.00;;;;;;2111831;67;20388;-66
2022/03/10 05:50:25;;;;;;;16.25;9.82;;;1.70;92.00;;;;;;2125759;67;20309;-67
2022/03/10 05:53:08;;;;;;;17.25;10.45;;;1.70;92.00;;;;;;2132273;67;20405;-66
2022/03/10 05:55:53;;;;;;;14.27;9.32;;;1.60;92.20;;;;;;2153912;66;20337;-66
2022/03/10 05:58:34;;;;;;;16.55;10.88;;;1.70;92.20;;;;;;2152970;66;20439;-68
2022/03/10 06:01:22;;;;;;;18.50;10.77;;;1.70;92.10;;;;;;2153196;66;20409;-66
2022/03/10 06:04:07;;;;;;;16.38;9.55;;;1.70;92.20;;;;;;2154319;66;20236;-66
2022/03/10 06:06:52;;;;;;;16.83;9.53;;;1.70;92.20;;;;;;2152961;66;20335;-66
2022/03/10 06:09:34;;;;;;;19.92;10.57;;;1.60;92.20;;;;;;2153887;66;20173;-66
2022/03/10 06:12:22;;;;;;;14.80;9.95;;;1.70;92.20;;;;;;2145386;66;20442;-66
2022/03/10 06:15:10;;;;;;;18.65;10.60;;;1.60;92.20;;;;;;2139050;66;20196;-67
2022/03/10 06:17:53;;;;;;;18.63;10.25;;;1.70;92.20;;;;;;2124633;67;20709;-68
2022/03/10 06:20:38;;;;;;;19.55;10.45;;;1.70;92.20;;;;;;2123367;67;20173;-66
2022/03/10 06:23:19;;;;;;;22.88;10.50;;;1.70;92.20;;;;;;2128168;67;20380;-67
2022/03/10 06:26:01;;;;;;;15.68;9.52;;;1.70;92.20;;;;;;2133459;67;20313;-67
2022/03/10 06:28:43;;;;;;;16.30;10.73;;;1.70;92.30;;;;;;2132668;67;20348;-67
2022/03/10 06:31:27;;;;;;;16.20;10.40;;;1.80;92.30;;;;;;2138601;67;20325;-67
2022/03/10 06:34:12;;;;;;;16.85;10.35;;;1.80;92.30;;;;;;2117357;67;20345;-68
2022/03/10 06:36:57;;;;;;;18.42;9.98;;;1.80;92.40;;;;;;2110481;67;20206;-67
2022/03/10 06:39:38;;;;;;;15.07;9.68;;;1.90;92.40;;;;;;2111415;67;20277;-66
2022/03/10 06:42:23;;;;;;;14.93;9.68;;;1.90;92.40;;;;;;2118356;67;20229;-67
2022/03/10 06:45:07;;;;;;;18.00;10.07;;;2.00;92.50;;;;;;2131402;67;20336;-67
2022/03/10 06:47:49;;;;;;;14.88;9.55;;;1.90;92.50;;;;;;2118759;67;20768;-66
2022/03/10 06:50:31;;;;;;;19.05;10.07;;;2.00;92.60;;;;;;2142677;66;20272;-67
2022/03/10 06:53:15;;;;;;;16.35;10.32;;;2.10;92.50;;;;;;2134925;66;20382;-66
2022/03/10 06:55:59;;;;;;;;;;;2.10;92.50;;;;;;2146466;66;20334;-68
2022/03/10 06:58:42;;;;;;;16.58;9.95;;;2.10;92.40;;;;;;2153894;66;20099;-68
2022/03/10 07:01:27;;;;;;;15.35;9.88;;;2.20;92.20;;;;;;2151277;66;20377;-68
2022/03/10 07:04:13;;;;;;;25.67;11.53;;;2.20;92.00;;;;;;2131677;67;20208;-68
2022/03/10 07:06:58;;;;;;;32.00;10.82;;;2.20;91.90;;;;;;2124813;67;20219;-68
2022/03/10 07:09:44;;;;;;;18.38;11.60;;;2.30;91.80;;;;;;2116344;67;20161;-68
2022/03/10 07:12:28;;;;;;;16.65;10.23;;;2.40;91.70;;;;;;2118109;67;20326;-67
2022/03/10 07:15:14;;;;;;;15.30;10.20;;;2.40;91.60;;;;;;2125761;67;20345;-67
2022/03/10 07:17:59;;;;;;;21.15;11.30;;;2.50;91.50;;;;;;2139785;66;20340;-68
2022/03/10 07:20:41;;;;;;;16.98;10.60;;;2.60;91.60;;;;;;2145497;66;20419;-68
2022/03/10 07:23:22;;;;;;;18.52;10.68;;;2.60;91.40;;;;;;2129447;67;20195;-67
2022/03/10 07:26:04;;;;;;;15.88;10.73;;;2.70;91.20;;;;;;2125265;67;20389;-67
2022/03/10 07:28:46;;;;;;;16.27;10.50;;;2.70;91.10;;;;;;2130024;67;20676;-67
2022/03/10 07:31:30;;;;;;;19.77;10.93;;;2.90;91.10;;;;;;2119251;67;20172;-67
2022/03/10 07:34:15;;;;;;;24.83;10.63;;;2.90;90.90;;;;;;2128634;67;20776;-68
2022/03/10 07:36:59;;;;;;;18.10;11.02;;;3.00;90.90;;;;;;2127793;67;20184;-67
2022/03/10 07:39:48;;;;;;;16.92;10.15;;;3.00;90.70;;;;;;2123755;67;20260;-67
2022/03/10 07:42:32;;;;;;;16.30;10.30;;;3.20;90.80;;;;;;2119502;67;20347;-67
2022/03/10 07:45:13;;;;;;;18.75;10.63;;;3.10;90.50;;;;;;2120158;67;20328;-66
2022/03/10 07:48:01;;;;;;;16.20;9.57;;;3.20;90.40;;;;;;2121922;67;20810;-68
2022/03/10 07:50:42;;;;;;;15.05;9.85;;;3.30;90.30;;;;;;2124358;67;20244;-68
2022/03/10 07:53:30;;;;;;;17.88;9.73;;;3.50;90.10;;;;;;2125022;67;20212;-67
2022/03/10 07:56:14;;;;;;;18.13;10.57;;;3.50;90.00;;;;;;2116970;67;20216;-67
2022/03/10 07:58:56;;;;;;;15.23;10.57;;;3.60;89.70;;;;;;2094558;68;20232;-65
2022/03/10 08:01:40;;;;;;;18.20;11.20;;;3.70;89.50;;;;;;2090335;68;20266;-67
2022/03/10 08:04:24;;;;;;;;;;;3.70;88.90;;;;;;2090375;68;20434;-67
2022/03/10 08:07:05;;;;;;;14.30;10.68;;;4.00;89.40;;;;;;2097013;68;20196;-67
2022/03/10 08:09:47;;;;;;;19.73;11.55;;;3.90;88.20;;;;;;2090156;68;20795;-67
2022/03/10 08:12:30;;;;;;;16.40;10.10;;;4.00;87.80;;;;;;2089148;68;20191;-69
2022/03/10 08:15:12;;;;;;;16.67;10.70;;;4.10;87.30;;;;;;2065725;69;20334;-69
2022/03/10 08:17:54;;;;;;;17.95;11.63;;;4.10;86.80;;;;;;2089449;68;20371;-68
2022/03/10 08:20:39;;;;;;;20.08;11.15;;;4.20;86.60;;;;;;2085344;68;20250;-67
2022/03/10 08:23:21;;;;;;;17.47;10.70;;;4.30;86.30;;;;;;2104452;67;20659;-70
2022/03/10 08:26:02;;;;;;;18.58;10.02;;;4.30;85.90;;;;;;2103845;67;20367;-70
2022/03/10 08:28:45;;;;;;;16.27;10.38;;;4.40;85.40;;;;;;2103509;68;20748;-70
2022/03/10 08:31:27;;;;;;;16.60;11.02;;;4.50;85.00;;;;;;2096737;68;20202;-68
2022/03/10 08:34:10;;;;;;;15.38;9.98;;;4.60;83.90;;;;;;2090070;68;20318;-68
2022/03/10 08:36:52;;;;;;;18.33;11.30;;;4.80;82.30;;;;;;2105542;67;20414;-68
2022/03/10 08:39:34;;;;;;;15.45;10.52;;;4.90;81.70;;;;;;2123632;67;20184;-69
2022/03/10 08:42:22;;;;;;;17.08;11.63;;;5.00;81.20;;;;;;2125835;67;20196;-68
2022/03/10 08:45:08;;;;;;;13.88;9.93;;;5.10;80.80;;;;;;2118666;67;20302;-68
2022/03/10 08:47:50;;;;;;;16.90;11.32;;;5.20;80.20;;;;;;2118688;67;20265;-67
2022/03/10 08:50:33;;;;;;;18.42;11.25;;;5.30;79.50;;;;;;2136591;67;21012;-68
2022/03/10 08:53:17;;;;;;;16.30;9.75;;;5.40;79.20;;;;;;2132836;67;20227;-68
2022/03/10 08:56:00;;;;;;;18.00;10.43;;;5.50;79.10;;;;;;2140186;66;20578;-66
2022/03/10 08:58:46;;;;;;;19.08;10.63;;;5.60;78.90;;;;;;2130653;67;20212;-67
2022/03/10 09:01:31;;;;;;;16.52;10.98;;;5.70;78.50;;;;;;2124889;67;20179;-68
2022/03/10 09:04:12;;;;;;;15.13;10.15;;;5.80;77.80;;;;;;2125378;67;20221;-68
2022/03/10 09:06:54;;;;;;;18.55;10.23;;;5.90;76.60;;;;;;2110018;67;20332;-68
2022/03/10 09:09:36;;;;;;;16.02;10.43;;;6.10;75.00;;;;;;2124518;67;20356;-68
2022/03/10 09:12:19;;;;;;;15.95;10.50;;;6.20;73.90;;;;;;2111772;67;20322;-68
2022/03/10 09:15:05;;;;;;;;;;;6.30;73.10;;;;;;2118829;67;20325;-67
2022/03/10 09:17:46;;;;;;;17.35;10.88;;;6.50;71.70;;;;;;2124876;67;20217;-69
2022/03/10 09:20:29;;;;;;;14.05;11.13;;;6.60;71.40;;;;;;2116756;67;20762;-68
2022/03/10 09:23:11;;;;;;;19.77;11.32;;;6.70;71.30;;;;;;2125494;67;20643;-67
2022/03/10 09:25:56;;;;;;;14.57;10.57;;;6.80;71.20;;;;;;2119189;67;20222;-68
2022/03/10 09:28:38;;;;;;;18.23;11.18;;;6.90;70.90;;;;;;2128929;67;20201;-67
2022/03/10 09:31:19;;;;;;;17.73;10.77;;;7.00;70.60;;;;;;2133069;67;20597;-68
2022/03/10 09:34:01;;;;;;;17.52;11.00;;;7.10;70.30;;;;;;2139655;67;20339;-68
2022/03/10 09:36:43;;;;;;;14.88;10.93;;;7.20;70.00;;;;;;2140373;67;20249;-68
2022/03/10 09:39:25;;;;;;;17.60;12.05;;;7.30;69.10;;;;;;2138164;66;20184;-68
2022/03/10 09:42:09;;;;;;;16.23;10.43;;;7.60;68.80;;;;;;2140476;67;20393;-69
2022/03/10 09:44:53;;;;;;;14.77;10.82;;;7.60;68.60;;;;;;2132465;67;20307;-70
2022/03/10 09:47:39;;;;;;;16.30;11.50;;;7.70;68.20;;;;;;2132400;67;20614;-68
2022/03/10 09:50:21;;;;;;;16.27;9.95;;;7.80;67.90;;;;;;2125568;67;20204;-69
2022/03/10 09:53:03;;;;;;;13.43;10.40;;;7.90;67.50;;;;;;2124060;67;20246;-69
2022/03/10 09:55:45;;;;;;;16.08;10.98;;;8.00;67.00;;;;;;2119268;67;20285;-68
2022/03/10 09:58:27;;;;;;;15.52;11.10;;;8.00;66.70;;;;;;2118339;67;20249;-67
2022/03/10 10:01:09;;;;;;;16.50;10.45;;;8.20;66.20;;;;;;2113301;67;20288;-68
2022/03/10 10:03:55;;;;;;;15.90;11.45;;;8.30;65.60;;;;;;2104212;67;20186;-68
2022/03/10 10:07:02;;;;;;;14.00;11.52;;;8.40;65.20;;;;;;2118123;67;20229;-68
2022/03/10 10:09:52;;;;;;;16.15;10.95;;;8.60;65.20;;;;;;2105696;67;20760;-68
2022/03/10 10:12:34;;;;;;;14.18;11.20;;;8.60;64.50;;;;;;2097139;68;20373;-67
2022/03/10 10:15:17;;;;;;;14.27;10.90;;;8.70;64.00;;;;;;2100335;67;20720;-68
2022/03/10 10:18:00;;;;;;;18.40;11.45;;;8.80;64.00;;;;;;2109891;67;20208;-68
2022/03/10 10:20:49;;;;;;;15.57;10.35;;;9.00;63.10;;;;;;2097175;68;20732;-68
2022/03/10 10:23:34;;;;;;;16.00;11.65;;;9.10;62.90;;;;;;2076344;68;20205;-68
2022/03/10 10:26:20;;;;;;;15.30;11.23;;;9.30;63.00;;;;;;2069720;69;20294;-69
2022/03/10 10:29:04;;;;;;;16.33;11.52;;;9.40;62.60;;;;;;2075218;68;20432;-68
2022/03/10 10:31:47;;;;;;;14.65;10.68;;;9.50;62.60;;;;;;2110942;67;20390;-68
2022/03/10 10:34:31;;;;;;;17.02;11.32;;;9.70;62.80;;;;;;2136368;66;20765;-68
2022/03/10 10:37:23;;;;;;;15.98;10.43;;;9.80;62.60;;;;;;2146762;66;20197;-68
2022/03/10 10:40:09;;;;;;;16.80;10.93;;;10.00;62.70;;;;;;2139912;67;20230;-68
2022/03/10 10:42:50;;;;;;;16.58;11.23;;;10.20;62.60;;;;;;2143666;66;20673;-67
2022/03/10 10:45:37;;;;;;;15.63;11.27;;;10.60;62.50;;;;;;2139442;67;20267;-67
2022/03/10 10:48:22;;;;;;;17.50;11.43;;;10.70;61.60;;;;;;2144801;66;20786;-67
2022/03/10 10:51:04;;;;;;;18.55;12.15;;;10.90;61.90;;;;;;2146667;66;20343;-69
2022/03/10 10:53:46;;;;;;;18.77;11.40;;;11.30;62.00;;;;;;2148191;66;20334;-66
2022/03/10 10:56:30;;;;;;;16.42;11.93;;;11.70;61.50;;;;;;2128297;67;20221;-67
2022/03/10 10:59:34;;;;;;;17.65;11.30;;;12.10;60.50;;;;;;2138570;67;20251;-69
2022/03/10 11:02:18;;;;;;;15.10;11.50;;;12.50;59.60;;;;;;2119640;67;20263;-69
2022/03/10 11:05:01;;;;;;;15.57;12.10;;;12.90;59.20;;;;;;2130367;67;20171;-69
2022/03/10 11:07:43;;;;;;;17.85;12.00;;;13.30;58.50;;;;;;2116146;67;20873;-69
2022/03/10 11:10:29;;;;;;;16.13;12.85;;;13.80;56.90;;;;;;2115035;67;20320;-69
2022/03/10 11:13:10;;;;;;;15.52;12.20;;;14.30;56.10;;;;;;2090370;68;20215;-70
2022/03/10 11:15:54;;;;;;;18.08;13.07;;;14.70;54.30;;;;;;2096338;68;20288;-70
2022/03/10 11:18:43;;;;;;;20.70;13.38;;;15.20;52.60;;;;;;2098737;68;20839;-71
2022/03/10 11:21:50;;;;;;;20.45;15.63;;;15.70;51.40;;;;;;2106858;67;20189;-71
2022/03/10 11:24:59;;;;;;;13.77;11.32;;;16.20;50.60;;;;;;2117164;67;20181;-70
2022/03/10 11:27:46;;;;;;;13.60;10.95;;;16.80;49.60;;;;;;2132254;67;20246;-70
2022/03/10 11:30:29;;;;;;;15.30;10.88;;;17.30;48.90;;;;;;2143984;66;20282;-71
2022/03/10 11:33:18;;;;;;;13.10;11.60;;;17.80;47.70;;;;;;2152312;66;20325;-70
2022/03/10 11:36:17;;;;;;;13.75;11.60;;;18.20;46.70;;;;;;2141900;66;20321;-71
2022/03/10 11:39:06;;;;;;;14.80;11.73;;;18.70;46.30;;;;;;2125298;67;20230;-70
2022/03/10 11:41:53;;;;;;;17.00;12.48;;;19.10;44.30;;;;;;2125743;67;20205;-68
2022/03/10 11:44:39;;;;;;;16.48;12.43;;;19.40;42.90;;;;;;1896591;67;15987361;-67
2022/03/10 11:47:24;;;;;;;15.00;12.75;;;19.90;41.90;;;;;;2131485;67;20220;-69
2022/03/10 11:50:29;;;;;;;16.00;13.00;;;20.20;40.90;;;;;;2136227;67;20199;-69
2022/03/10 11:53:13;;;;;;;15.02;12.77;;;20.80;40.90;;;;;;2128953;67;20299;-71
2022/03/10 11:55:56;;;;;;;14.48;11.90;;;21.10;39.20;;;;;;2115546;67;20569;-69
2022/03/10 11:58:38;;;;;;;15.65;13.07;;;21.50;37.90;;;;;;2108626;67;20259;-71
2022/03/10 12:01:21;;;;;;;14.73;12.57;;;21.70;37.10;;;;;;2104301;68;20182;-70
2022/03/10 12:04:12;;;;;;;14.15;12.52;;;22.00;36.90;;;;;;2104800;68;20376;-70
2022/03/10 12:06:56;;;;;;;16.02;12.48;;;22.30;36.10;;;;;;2110261;67;20339;-69
2022/03/10 12:09:39;;;;;;;13.82;11.73;;;22.40;35.40;;;;;;2112233;67;20217;-71
2022/03/10 12:12:28;;;;;;;14.05;12.43;;;22.60;36.40;;;;;;2115357;67;20252;-71
2022/03/10 12:15:38;;;;;;;13.00;11.70;;;23.10;35.40;;;;;;2117930;67;20264;-71
2022/03/10 12:18:27;;;;;;;14.73;13.13;;;23.60;35.40;;;;;;2104561;67;20809;-72
2022/03/10 12:21:29;;;;;;;13.32;12.13;;;24.20;33.90;;;;;;2115694;67;20189;-72
2022/03/10 12:24:14;;;;;;;13.50;12.10;;;24.60;33.20;;;;;;2105916;67;20354;-70
2022/03/10 12:27:04;;;;;;;13.43;12.02;;;25.00;32.70;;;;;;2106771;67;20241;-71
2022/03/10 12:29:55;;;;;;;14.60;12.70;;;25.40;32.50;;;;;;2115319;67;20221;-71
2022/03/10 12:32:44;;;;;;;14.13;12.63;;;25.70;32.30;;;;;;2136064;67;20255;-71
2022/03/10 12:35:31;;;;;;;14.73;13.27;;;26.10;32.10;;;;;;2127956;67;20280;-69
2022/03/10 12:38:13;;;;;;;15.48;13.88;;;26.50;31.30;;;;;;2117959;67;20597;-70
2022/03/10 12:40:57;;;;;;;15.40;12.77;;;26.60;30.90;;;;;;2118430;67;20227;-70
2022/03/10 12:43:42;;;;;;;15.02;13.50;;;26.70;30.60;;;;;;2121297;67;20203;-72
2022/03/10 12:46:25;;;;;;;12.93;11.70;;;26.90;30.60;;;;;;2110468;67;20339;-70
2022/03/10 12:49:13;;;;;;;13.77;12.35;;;27.00;30.50;;;;;;2106001;67;20203;-69
2022/03/10 12:52:08;;;;;;;15.20;13.18;;;27.00;30.10;;;;;;2123576;67;20699;-70
2022/03/10 12:54:56;;;;;;;13.82;11.95;;;26.40;29.90;;;;;;2114704;67;20268;-70
2022/03/10 12:57:40;;;;;;;16.17;12.30;;;25.90;30.00;;;;;;2114865;67;20240;-70
2022/03/10 13:00:25;;;;;;;13.70;12.30;;;25.70;30.40;;;;;;2124611;67;20248;-71
2022/03/10 13:03:10;;;;;;;15.50;12.45;;;25.60;30.50;;;;;;2117220;67;20369;-71
2022/03/10 13:05:52;;;;;;;14.07;12.63;;;25.60;30.40;;;;;;2091759;68;20351;-70
2022/03/10 13:08:40;;;;;;;16.30;12.80;;;25.50;30.30;;;;;;2103533;68;20217;-72
2022/03/10 13:11:31;;;;;;;13.98;12.57;;;25.50;30.40;;;;;;2111343;67;20172;-71
2022/03/10 13:14:16;;;;;;;15.00;13.15;;;25.70;30.50;;;;;;2118660;67;20692;-72
2022/03/10 13:17:00;;;;;;;15.15;13.30;;;25.70;30.10;;;;;;2126315;67;20786;-72
2022/03/10 13:19:43;;;;;;;13.85;12.35;;;25.80;30.50;;;;;;2127767;67;20362;-70
2022/03/10 13:22:24;;;;;;;14.63;12.38;;;26.40;30.30;;;;;;2130940;67;20363;-71
2022/03/10 13:25:10;;;;;;;14.40;12.10;;;27.00;30.00;;;;;;2124528;67;20210;-72
2022/03/10 13:28:00;;;;;;;13.80;12.25;;;27.60;29.80;;;;;;2133382;67;20179;-71
2022/03/10 13:30:45;;;;;;;15.35;13.68;;;28.30;29.50;;;;;;2141272;66;20299;-73
2022/03/10 13:33:28;;;;;;;14.65;13.13;;;29.00;29.50;;;;;;2146949;66;20766;-70
2022/03/10 13:36:14;;;;;;;15.93;12.75;;;29.50;29.10;;;;;;2152778;66;20282;-71
2022/03/10 13:38:56;;;;;;;14.68;12.95;;;29.80;29.20;;;;;;2146730;66;20378;-71
2022/03/10 13:41:44;;;;;;;14.48;11.98;;;30.20;28.60;;;;;;2139707;67;20319;-71
2022/03/10 13:44:28;;;;;;;15.52;13.15;;;30.30;28.30;;;;;;2146800;66;20354;-71
2022/03/10 13:47:10;;;;;;;16.55;12.75;;;30.60;28.20;;;;;;2125396;67;20185;-71
2022/03/10 13:49:54;;;;;;;14.40;12.88;;;30.90;28.30;;;;;;2119361;67;20643;-70
2022/03/10 13:52:41;;;;;;;15.65;11.80;;;31.20;27.70;;;;;;2135685;67;21027;-70
2022/03/10 13:55:35;;;;;;;13.95;12.27;;;30.70;27.40;;;;;;2138849;66;20804;-71
2022/03/10 13:58:19;;;;;;;14.27;12.75;;;30.10;28.00;;;;;;2135090;66;20347;-72
2022/03/10 14:01:07;;;;;;;14.90;13.32;;;29.80;28.10;;;;;;2124577;67;20703;-72
2022/03/10 14:03:55;;;;;;;13.82;12.40;;;30.00;28.20;;;;;;2126740;67;20387;-71
2022/03/10 14:06:46;;;;;;;14.25;12.43;;;30.00;28.20;;;;;;2118801;67;20177;-71
2022/03/10 14:09:29;;;;;;;15.50;12.65;;;30.20;28.20;;;;;;2111785;67;20462;-70
2022/03/10 14:12:19;;;;;;;14.88;13.30;;;30.40;28.30;;;;;;2111640;67;20363;-70